Terminal Aerodrome Forecast
Issued by NWS Paducah, KY

Home | Current Version | Previous Version | Text Only | Print | Product List | Glossary On
Versions: 1 2 3 4 5 6 7 8 9 10 11 12 13 14 15 16 17 18
805
FTUS43 KPAH 262034 AAA
TAFEVV
TAF AMD
KEVV 262034Z 2621/2718 VRB04KT P6SM SCT035 BKN250
      TEMPO 2621/2623 31012G20KT 3SM TSRA SCT020CB BKN040
     FM270000 VRB03KT P6SM FEW050 BKN200=

USA.gov is the U.S. government's official web portal to all federal, state and local government web resources and services.